createdAt,value
2022-12-15T00:00:04.077Z,97.50
2022-12-15T00:02:49.928Z,97.30
2022-12-15T00:05:35.812Z,97.30
2022-12-15T00:08:29.278Z,97.30
2022-12-15T00:11:15.429Z,97.20
2022-12-15T00:14:02.749Z,97.20
2022-12-15T00:16:48.204Z,97.30
2022-12-15T00:19:33.575Z,97.40
2022-12-15T00:22:19.248Z,97.70
2022-12-15T00:27:50.223Z,97.60
2022-12-15T00:30:37.325Z,97.70
2022-12-15T00:33:28.414Z,97.80
2022-12-15T00:36:16.686Z,97.70
2022-12-15T00:38:45.220Z,97.60
2022-12-15T00:41:14.461Z,97.50
2022-12-15T00:43:42.752Z,97.60
2022-12-15T00:46:30.094Z,97.60
2022-12-15T00:48:58.731Z,97.80
2022-12-15T00:51:45.152Z,97.70
2022-12-15T00:54:31.073Z,97.60
2022-12-15T00:57:16.804Z,97.50
2022-12-15T01:00:02.496Z,97.40
2022-12-15T01:02:49.562Z,97.30
2022-12-15T01:05:35.332Z,97.30
2022-12-15T01:08:21.169Z,97.10
2022-12-15T01:11:06.816Z,97.10
2022-12-15T01:13:52.523Z,97.00
2022-12-15T01:16:38.320Z,97.00
2022-12-15T01:19:27.298Z,96.90
2022-12-15T01:21:55.534Z,96.90
2022-12-15T01:24:24.501Z,97.00
2022-12-15T01:26:52.759Z,96.90
2022-12-15T01:29:20.994Z,97.00
2022-12-15T01:31:49.956Z,97.10
2022-12-15T01:34:22.819Z,97.10
2022-12-15T01:36:51.239Z,97.10
2022-12-15T01:39:19.521Z,97.30
2022-12-15T01:41:46.822Z,97.30
2022-12-15T01:44:18.059Z,97.20
2022-12-15T01:46:46.656Z,97.20
2022-12-15T01:49:19.159Z,97.20
2022-12-15T01:51:52.673Z,97.20
2022-12-15T01:54:24.444Z,97.20
2022-12-15T01:56:56.798Z,97.30
2022-12-15T01:59:30.336Z,97.40
2022-12-15T02:01:58.905Z,97.30
2022-12-15T02:04:27.443Z,97.40
2022-12-15T02:06:57.170Z,97.50
2022-12-15T02:09:27.509Z,97.40
2022-12-15T02:12:02.310Z,97.50
2022-12-15T02:14:48.415Z,97.30
2022-12-15T02:17:29.505Z,97.30
2022-12-15T02:20:30.163Z,97.30
2022-12-15T02:23:26.034Z,97.30
2022-12-15T02:26:17.760Z,97.20
2022-12-15T02:28:57.932Z,97.20
2022-12-15T02:31:52.101Z,97.30
2022-12-15T02:34:28.153Z,97.20
2022-12-15T02:37:00.860Z,97.30
2022-12-15T02:39:30.178Z,97.40
2022-12-15T02:41:58.475Z,97.30
2022-12-15T02:44:30.910Z,97.30
2022-12-15T02:47:24.803Z,97.40
2022-12-15T02:50:11.681Z,97.50
2022-12-15T02:53:01.357Z,97.50
2022-12-15T02:55:37.846Z,97.40
2022-12-15T02:58:13.713Z,97.40
2022-12-15T03:00:45.553Z,97.30
2022-12-15T03:03:20.257Z,97.30
2022-12-15T03:05:49.008Z,97.40
2022-12-15T03:08:17.366Z,97.40
2022-12-15T03:10:45.775Z,97.50
2022-12-15T03:13:15.085Z,97.60
2022-12-15T03:15:43.353Z,97.60
2022-12-15T03:18:12.067Z,97.60
2022-12-15T03:20:41.733Z,97.70
2022-12-15T03:23:10.054Z,97.70
2022-12-15T03:25:38.337Z,97.70
2022-12-15T03:28:06.796Z,97.80
2022-12-15T03:30:35.106Z,97.90
2022-12-15T03:33:03.369Z,97.90
2022-12-15T03:35:33.843Z,97.90
2022-12-15T03:38:03.573Z,97.90
2022-12-15T03:40:31.870Z,98.00
2022-12-15T03:43:00.186Z,98.00
2022-12-15T03:45:30.025Z,97.90
2022-12-15T03:47:59.785Z,98.00
2022-12-15T03:50:30.386Z,98.10
2022-12-15T03:53:00.421Z,98.10
2022-12-15T03:55:30.401Z,98.10
2022-12-15T03:57:59.230Z,98.10
2022-12-15T04:00:28.447Z,98.10
2022-12-15T04:02:57.094Z,98.00
2022-12-15T04:05:27.699Z,98.20
2022-12-15T04:07:56.707Z,98.10
2022-12-15T04:10:31.730Z,98.10
2022-12-15T04:13:05.782Z,98.00
2022-12-15T04:15:34.616Z,97.90
2022-12-15T04:18:03.474Z,97.90
2022-12-15T04:20:33.127Z,97.90
2022-12-15T04:23:01.763Z,97.80
2022-12-15T04:25:47.416Z,97.80
2022-12-15T04:28:34.727Z,97.70
2022-12-15T04:31:25.618Z,97.60
2022-12-15T04:34:13.714Z,97.70
2022-12-15T04:37:01.423Z,97.60
2022-12-15T04:39:47.135Z,97.60
2022-12-15T04:42:33.425Z,97.50
2022-12-15T04:45:22.812Z,97.50
2022-12-15T04:48:08.364Z,97.40
2022-12-15T04:50:54.053Z,97.40
2022-12-15T04:53:40.403Z,97.30
2022-12-15T04:56:30.432Z,97.30
2022-12-15T04:59:16.438Z,97.30
2022-12-15T05:02:03.980Z,97.30
2022-12-15T05:04:50.254Z,97.20
2022-12-15T05:07:35.750Z,97.20
2022-12-15T05:10:22.043Z,97.30
2022-12-15T05:13:07.823Z,97.30
2022-12-15T05:15:53.614Z,97.20
2022-12-15T05:18:41.019Z,97.30
2022-12-15T05:21:27.331Z,97.30
2022-12-15T05:24:12.967Z,97.30
2022-12-15T05:26:58.284Z,97.20
2022-12-15T05:29:43.873Z,97.10
2022-12-15T05:32:13.332Z,97.10
2022-12-15T05:34:43.025Z,97.00
2022-12-15T05:37:11.288Z,97.30
2022-12-15T05:39:39.549Z,96.90
2022-12-15T05:42:08.106Z,96.90
2022-12-15T05:44:36.367Z,96.80
2022-12-15T05:47:04.964Z,96.80
2022-12-15T05:49:33.504Z,96.80
2022-12-15T05:52:03.272Z,96.70
2022-12-15T05:54:31.689Z,96.60
2022-12-15T05:56:59.978Z,96.60
2022-12-15T05:59:28.268Z,96.60
2022-12-15T06:01:56.589Z,96.70
2022-12-15T06:04:25.099Z,96.70
2022-12-15T06:06:53.442Z,96.70
2022-12-15T06:09:23.082Z,96.60
2022-12-15T06:11:51.356Z,96.60
2022-12-15T06:14:19.728Z,96.60
2022-12-15T06:16:50.445Z,96.60
2022-12-15T06:19:19.873Z,96.60
2022-12-15T06:21:48.139Z,96.60
2022-12-15T06:24:16.609Z,96.50
2022-12-15T06:26:46.296Z,96.50
2022-12-15T06:29:18.416Z,96.50
2022-12-15T06:31:46.915Z,96.50
2022-12-15T06:34:17.706Z,96.50
2022-12-15T06:36:46.365Z,96.50
2022-12-15T06:39:16.529Z,96.40
2022-12-15T06:41:46.668Z,96.40
2022-12-15T06:44:16.215Z,96.40
2022-12-15T06:46:46.234Z,96.30
2022-12-15T06:49:15.070Z,96.20
2022-12-15T06:51:45.213Z,96.10
2022-12-15T06:54:13.693Z,96.20
2022-12-15T06:56:42.519Z,96.10
2022-12-15T06:59:13.632Z,96.10
2022-12-15T07:01:43.314Z,96.10
2022-12-15T07:04:12.043Z,96.10
2022-12-15T07:06:40.880Z,95.90
2022-12-15T07:09:12.873Z,95.80
2022-12-15T07:11:41.557Z,95.90
2022-12-15T07:14:12.366Z,95.80
2022-12-15T07:16:42.400Z,95.70
2022-12-15T07:19:13.544Z,95.70
2022-12-15T07:21:42.525Z,95.80
2022-12-15T07:24:12.651Z,96.10
2022-12-15T07:26:41.293Z,95.80
2022-12-15T07:29:09.650Z,95.70
2022-12-15T07:31:39.677Z,95.70
2022-12-15T07:34:07.999Z,95.70
2022-12-15T07:36:36.243Z,95.50
2022-12-15T07:39:06.200Z,95.60
2022-12-15T07:41:35.468Z,95.60
2022-12-15T07:44:03.787Z,95.70
2022-12-15T07:46:32.169Z,95.70
2022-12-15T07:49:01.880Z,95.80
2022-12-15T07:51:30.175Z,95.80
2022-12-15T07:53:58.833Z,95.80
2022-12-15T07:56:27.141Z,95.70
2022-12-15T07:58:55.383Z,95.60
2022-12-15T08:01:32.047Z,95.60
2022-12-15T08:04:08.412Z,95.60
2022-12-15T08:06:37.027Z,95.60
2022-12-15T08:09:05.386Z,95.60
2022-12-15T08:11:35.673Z,95.50
2022-12-15T08:14:06.840Z,95.30
2022-12-15T08:16:37.556Z,95.50
2022-12-15T08:19:08.625Z,95.60
2022-12-15T08:21:36.858Z,95.50
2022-12-15T08:24:05.614Z,95.50
2022-12-15T08:26:33.900Z,95.50
2022-12-15T08:32:19.433Z,95.40
2022-12-15T08:34:49.790Z,95.40
2022-12-15T08:37:18.049Z,95.30
2022-12-15T08:39:46.796Z,95.40
2022-12-15T08:42:15.108Z,95.40
2022-12-15T08:44:43.401Z,95.30
2022-12-15T08:47:11.639Z,95.20
2022-12-15T08:49:40.157Z,95.10
2022-12-15T08:52:09.973Z,95.10
2022-12-15T08:54:38.475Z,95.00
2022-12-15T08:57:06.998Z,95.10
2022-12-15T08:59:35.428Z,95.10
2022-12-15T09:02:03.932Z,95.10
2022-12-15T09:04:32.423Z,95.20
2022-12-15T09:07:00.864Z,95.30
2022-12-15T09:09:30.594Z,95.30
2022-12-15T09:11:58.840Z,95.40
2022-12-15T09:14:29.386Z,95.80
2022-12-15T09:16:58.170Z,95.40
2022-12-15T09:19:26.539Z,95.70
2022-12-15T09:21:55.716Z,95.90
2022-12-15T09:24:33.865Z,95.80
2022-12-15T09:27:04.569Z,95.80
2022-12-15T09:29:35.704Z,95.90
2022-12-15T09:32:08.967Z,95.80
2022-12-15T09:34:40.494Z,96.30
2022-12-15T09:37:08.768Z,96.10
2022-12-15T09:39:37.939Z,96.10
2022-12-15T09:42:07.611Z,95.60
2022-12-15T09:44:35.946Z,95.90
2022-12-15T09:47:16.043Z,95.70
2022-12-15T09:49:53.523Z,95.50
2022-12-15T09:52:25.041Z,95.40
2022-12-15T09:54:53.355Z,95.20
2022-12-15T09:57:32.141Z,95.30
2022-12-15T10:00:17.630Z,95.30
2022-12-15T10:03:17.364Z,95.30
2022-12-15T10:06:25.960Z,95.20
2022-12-15T10:08:57.678Z,95.10
2022-12-15T10:11:42.278Z,95.20
2022-12-15T10:14:22.691Z,94.90
2022-12-15T10:17:00.894Z,94.60
2022-12-15T10:19:37.914Z,94.70
2022-12-15T10:22:06.418Z,94.70
2022-12-15T10:27:37.814Z,94.80
2022-12-15T10:30:12.005Z,94.90
2022-12-15T10:32:50.969Z,94.60
2022-12-15T10:35:22.814Z,94.60
2022-12-15T10:37:51.216Z,94.70
2022-12-15T10:40:41.094Z,94.70
2022-12-15T10:43:15.137Z,94.80
2022-12-15T10:45:45.282Z,94.80
2022-12-15T10:48:21.219Z,94.80
2022-12-15T10:50:50.212Z,94.80
2022-12-15T10:53:35.819Z,94.70
2022-12-15T10:56:09.174Z,94.70
2022-12-15T10:58:50.032Z,94.80
2022-12-15T11:01:21.951Z,94.80
2022-12-15T11:03:53.006Z,94.80
2022-12-15T11:06:23.881Z,94.90
2022-12-15T11:08:54.528Z,94.90
2022-12-15T11:11:50.352Z,94.70
2022-12-15T11:14:20.964Z,94.70
2022-12-15T11:16:56.255Z,94.70
2022-12-15T11:19:36.214Z,94.40
2022-12-15T11:22:11.294Z,94.50
2022-12-15T11:24:45.042Z,94.50
2022-12-15T11:27:26.226Z,94.60
2022-12-15T11:30:02.874Z,94.50
2022-12-15T11:32:36.506Z,93.90
2022-12-15T11:35:05.257Z,93.70
2022-12-15T11:37:42.029Z,93.50
2022-12-15T11:40:39.932Z,93.70
2022-12-15T11:43:28.310Z,93.40
2022-12-15T11:46:08.065Z,93.50
2022-12-15T11:48:46.243Z,93.50
2022-12-15T11:51:24.676Z,93.00
2022-12-15T11:54:09.017Z,93.10
2022-12-15T11:56:40.886Z,93.10
2022-12-15T11:59:42.751Z,93.10
2022-12-15T12:02:55.717Z,93.30
2022-12-15T12:06:03.051Z,93.30
2022-12-15T12:08:45.091Z,93.10
2022-12-15T12:11:16.866Z,93.10
2022-12-15T12:13:56.005Z,93.20
2022-12-15T12:16:33.536Z,93.40
2022-12-15T12:19:06.020Z,93.40
2022-12-15T12:21:40.798Z,93.50
2022-12-15T12:24:17.739Z,93.60
2022-12-15T12:26:50.941Z,93.70
2022-12-15T12:29:24.440Z,93.70
2022-12-15T12:37:59.446Z,93.80
2022-12-15T12:40:36.788Z,93.80
2022-12-15T12:43:11.895Z,93.80
2022-12-15T12:45:50.988Z,93.60
2022-12-15T12:48:26.671Z,93.70
2022-12-15T12:51:12.325Z,93.60
2022-12-15T12:53:42.018Z,93.50
2022-12-15T12:56:36.006Z,93.50
2022-12-15T12:59:08.868Z,93.70
2022-12-15T13:01:39.062Z,93.80
2022-12-15T13:04:10.753Z,93.80
2022-12-15T13:06:58.382Z,93.90
2022-12-15T13:09:40.576Z,93.90
2022-12-15T13:12:53.967Z,93.90
2022-12-15T13:15:43.049Z,93.90
2022-12-15T13:18:18.635Z,94.00
2022-12-15T13:20:50.544Z,94.00
2022-12-15T13:23:44.081Z,93.90
2022-12-15T13:26:20.880Z,93.90
2022-12-15T13:28:53.592Z,93.90
2022-12-15T13:31:33.479Z,93.90
2022-12-15T13:34:21.198Z,93.90
2022-12-15T13:36:57.252Z,93.90
2022-12-15T13:39:56.429Z,93.90
2022-12-15T13:42:51.227Z,93.90
2022-12-15T13:45:50.252Z,93.90
2022-12-15T13:48:31.584Z,93.90
2022-12-15T13:51:06.953Z,94.00
2022-12-15T13:53:41.813Z,94.00
2022-12-15T13:56:47.153Z,94.10
2022-12-15T13:59:28.222Z,94.10
2022-12-15T14:01:56.878Z,94.20
2022-12-15T14:04:25.310Z,94.20
2022-12-15T14:06:56.565Z,94.30
2022-12-15T14:09:29.109Z,94.30
2022-12-15T14:12:00.377Z,94.90
2022-12-15T14:14:32.822Z,94.60
2022-12-15T14:17:03.270Z,94.50
2022-12-15T14:19:40.688Z,94.50
2022-12-15T14:22:29.435Z,94.50
2022-12-15T14:25:03.839Z,94.40
2022-12-15T14:27:38.312Z,94.50
2022-12-15T14:30:22.463Z,94.50
2022-12-15T14:32:53.867Z,94.60
2022-12-15T14:35:28.195Z,94.70
2022-12-15T14:38:15.122Z,94.80
2022-12-15T14:40:44.987Z,94.80
2022-12-15T14:43:19.870Z,94.80
2022-12-15T14:45:55.186Z,94.80
2022-12-15T14:48:40.925Z,94.80
2022-12-15T14:51:12.215Z,95.20
2022-12-15T14:53:42.695Z,94.60
2022-12-15T14:56:16.564Z,94.70
2022-12-15T14:58:47.039Z,94.70
2022-12-15T15:01:26.471Z,94.80
2022-12-15T15:03:04.934Z,93.80
2022-12-15T15:03:12.825Z,93.80
2022-12-15T15:03:59.340Z,95.00
2022-12-15T15:06:33.088Z,95.00
2022-12-15T15:09:15.582Z,95.00
2022-12-15T15:11:44.716Z,95.00
2022-12-15T15:14:16.623Z,95.10
2022-12-15T15:16:47.055Z,95.00
2022-12-15T15:19:22.538Z,94.90
2022-12-15T15:21:50.868Z,94.90
2022-12-15T15:24:35.323Z,95.10
2022-12-15T15:27:26.612Z,95.10
2022-12-15T15:30:13.358Z,95.00
2022-12-15T15:32:56.577Z,95.10
2022-12-15T15:35:32.105Z,95.10
2022-12-15T15:38:05.893Z,95.30
2022-12-15T15:40:34.164Z,95.30
2022-12-15T15:43:02.465Z,95.20
2022-12-15T15:45:31.208Z,95.20
2022-12-15T15:48:00.933Z,95.20
2022-12-15T15:50:30.952Z,95.30
2022-12-15T15:52:59.671Z,95.30
2022-12-15T15:55:37.756Z,95.40
2022-12-15T15:58:12.373Z,95.50
2022-12-15T16:00:41.351Z,95.60
2022-12-15T16:03:11.344Z,95.70
2022-12-15T16:05:40.901Z,95.70
2022-12-15T16:08:14.295Z,95.80
2022-12-15T16:10:45.858Z,95.70
2022-12-15T16:13:16.700Z,95.60
2022-12-15T16:15:45.380Z,95.60
2022-12-15T16:18:15.614Z,95.60
2022-12-15T16:20:45.250Z,95.60
2022-12-15T16:23:17.074Z,95.60
2022-12-15T16:25:50.859Z,95.70
2022-12-15T16:28:21.567Z,95.60
2022-12-15T16:30:50.751Z,95.70
2022-12-15T16:33:20.874Z,95.60
2022-12-15T16:35:51.131Z,95.50
2022-12-15T16:38:25.504Z,95.50
2022-12-15T16:40:55.246Z,95.50
2022-12-15T16:43:28.946Z,95.70
2022-12-15T16:45:58.524Z,95.70
2022-12-15T16:48:28.891Z,95.60
2022-12-15T16:50:59.327Z,95.60
2022-12-15T16:53:30.711Z,95.60
2022-12-15T16:56:00.950Z,95.60
2022-12-15T16:58:31.575Z,95.60
2022-12-15T17:01:00.284Z,95.60
2022-12-15T17:03:30.149Z,95.60
2022-12-15T17:06:02.051Z,95.90
2022-12-15T17:08:36.443Z,95.70
2022-12-15T17:11:05.221Z,95.60
2022-12-15T17:13:40.638Z,95.50
2022-12-15T17:16:15.015Z,95.50
2022-12-15T17:18:44.991Z,95.50
2022-12-15T17:21:17.044Z,95.60
2022-12-15T17:23:46.871Z,95.50
2022-12-15T17:26:27.948Z,95.50
2022-12-15T17:28:59.812Z,95.40
2022-12-15T17:31:36.379Z,95.40
2022-12-15T17:34:27.820Z,95.50
2022-12-15T17:36:56.501Z,95.50
2022-12-15T17:39:24.941Z,95.50
2022-12-15T17:42:02.668Z,95.50
2022-12-15T17:44:38.259Z,95.50
2022-12-15T17:47:09.369Z,95.50
2022-12-15T17:49:39.441Z,95.60
2022-12-15T17:52:21.193Z,95.60
2022-12-15T17:54:49.581Z,95.60
2022-12-15T17:57:17.984Z,95.70
2022-12-15T17:59:46.308Z,95.70
2022-12-15T18:02:15.265Z,95.70
2022-12-15T18:04:46.033Z,95.70
2022-12-15T18:07:19.557Z,95.70
2022-12-15T18:09:47.980Z,95.70
2022-12-15T18:12:20.779Z,95.70
2022-12-15T18:14:49.313Z,95.70
2022-12-15T18:17:17.654Z,95.70
2022-12-15T18:19:47.406Z,95.80
2022-12-15T18:22:20.407Z,95.80
2022-12-15T18:24:48.895Z,95.90
2022-12-15T18:27:23.469Z,95.90
2022-12-15T18:29:52.441Z,95.90
2022-12-15T18:32:22.150Z,95.90
2022-12-15T18:34:52.369Z,96.10
2022-12-15T18:37:23.709Z,96.00
2022-12-15T18:39:52.034Z,96.00
2022-12-15T18:42:23.017Z,96.00
2022-12-15T18:44:53.373Z,96.00
2022-12-15T18:47:23.868Z,96.00
2022-12-15T18:49:53.590Z,96.10
2022-12-15T18:52:24.156Z,96.20
2022-12-15T18:54:54.256Z,96.20
2022-12-15T18:57:28.488Z,96.20
2022-12-15T18:59:59.971Z,96.20
2022-12-15T19:02:28.488Z,96.30
2022-12-15T19:04:58.253Z,96.30
2022-12-15T19:07:26.634Z,96.40
2022-12-15T19:09:55.467Z,96.30
2022-12-15T19:12:23.790Z,96.70
2022-12-15T19:14:54.969Z,96.70
2022-12-15T19:17:42.647Z,96.30
2022-12-15T19:20:35.754Z,96.20
2022-12-15T19:23:04.419Z,96.20
2022-12-15T19:25:33.415Z,96.20
2022-12-15T19:28:02.503Z,96.30
2022-12-15T19:30:40.314Z,96.20
2022-12-15T19:33:10.649Z,96.20
2022-12-15T19:35:42.433Z,96.30
2022-12-15T19:38:24.487Z,96.40
2022-12-15T19:40:54.571Z,96.40
2022-12-15T19:43:23.626Z,96.40
2022-12-15T19:45:53.120Z,96.40
2022-12-15T19:48:23.758Z,96.40
2022-12-15T19:50:54.843Z,96.30
2022-12-15T19:53:26.942Z,96.30
2022-12-15T19:55:58.445Z,96.30
2022-12-15T19:58:29.957Z,96.30
2022-12-15T20:01:00.567Z,96.30
2022-12-15T20:03:30.890Z,96.30
2022-12-15T20:06:02.794Z,96.40
2022-12-15T20:08:35.546Z,96.50
2022-12-15T20:11:04.134Z,96.60
2022-12-15T20:13:33.070Z,96.50
2022-12-15T20:16:01.816Z,96.50
2022-12-15T20:18:30.658Z,96.60
2022-12-15T20:21:01.431Z,96.60
2022-12-15T20:23:31.970Z,96.50
2022-12-15T20:26:01.150Z,96.60
2022-12-15T20:28:31.108Z,96.60
2022-12-15T20:30:59.975Z,96.60
2022-12-15T20:33:28.686Z,96.70
2022-12-15T20:35:57.128Z,96.70
2022-12-15T20:38:30.004Z,96.70
2022-12-15T20:40:58.923Z,96.70
2022-12-15T20:43:31.195Z,96.70
2022-12-15T20:46:04.166Z,96.70
2022-12-15T20:48:34.911Z,96.70
2022-12-15T20:51:08.813Z,96.60
2022-12-15T20:53:39.954Z,96.50
2022-12-15T20:56:08.695Z,96.50
2022-12-15T20:58:39.674Z,96.50
2022-12-15T21:01:25.782Z,96.40
2022-12-15T21:03:56.770Z,96.40
2022-12-15T21:06:26.629Z,96.40
2022-12-15T21:08:56.883Z,96.40
2022-12-15T21:11:27.453Z,96.50
2022-12-15T21:14:03.756Z,96.40
2022-12-15T21:16:33.528Z,96.40
2022-12-15T21:19:19.784Z,96.40
2022-12-15T21:21:51.912Z,96.50
2022-12-15T21:24:24.667Z,96.40
2022-12-15T21:26:53.797Z,96.50
2022-12-15T21:29:25.266Z,96.50
2022-12-15T21:31:53.677Z,96.40
2022-12-15T21:34:22.067Z,96.30
2022-12-15T21:36:55.065Z,96.30
2022-12-15T21:39:29.638Z,96.30
2022-12-15T21:42:00.887Z,96.30
2022-12-15T21:44:29.168Z,96.40
2022-12-15T21:46:57.401Z,96.40
2022-12-15T21:49:25.585Z,96.40
2022-12-15T21:51:55.723Z,96.40
2022-12-15T21:54:31.187Z,96.30
2022-12-15T21:57:00.358Z,96.30
2022-12-15T21:59:31.002Z,96.30
2022-12-15T22:02:00.692Z,96.30
2022-12-15T22:04:31.611Z,96.30
2022-12-15T22:06:59.976Z,96.20
2022-12-15T22:09:29.680Z,96.10
2022-12-15T22:11:58.260Z,96.10
2022-12-15T22:14:28.807Z,96.10
2022-12-15T22:16:57.469Z,96.10
2022-12-15T22:19:25.805Z,96.00
2022-12-15T22:21:54.219Z,96.00
2022-12-15T22:24:23.341Z,96.00
2022-12-15T22:26:53.012Z,96.00
2022-12-15T22:29:23.699Z,95.90
2022-12-15T22:31:52.473Z,95.90
2022-12-15T22:34:24.973Z,95.90
2022-12-15T22:36:53.529Z,96.00
2022-12-15T22:39:23.561Z,96.10
2022-12-15T22:41:53.688Z,96.00
2022-12-15T22:44:26.083Z,96.00
2022-12-15T22:46:57.026Z,95.90
2022-12-15T22:49:30.111Z,95.90
2022-12-15T22:51:58.501Z,95.90
2022-12-15T22:54:28.921Z,95.90
2022-12-15T22:57:01.800Z,95.90
2022-12-15T22:59:35.779Z,95.80
2022-12-15T23:02:04.603Z,95.80
2022-12-15T23:04:33.780Z,95.90
2022-12-15T23:07:04.627Z,95.80
2022-12-15T23:09:33.073Z,95.80
2022-12-15T23:12:01.773Z,95.80
2022-12-15T23:14:43.921Z,95.80
2022-12-15T23:17:12.848Z,95.80
2022-12-15T23:19:44.960Z,95.80
2022-12-15T23:22:13.422Z,95.80
2022-12-15T23:24:41.870Z,95.80
2022-12-15T23:27:13.130Z,95.90
2022-12-15T23:29:41.413Z,95.90
2022-12-15T23:32:09.718Z,95.90
2022-12-15T23:34:37.986Z,96.00
2022-12-15T23:37:06.342Z,95.90
2022-12-15T23:39:34.666Z,95.80
2022-12-15T23:42:02.967Z,95.90
2022-12-15T23:44:32.888Z,95.80
2022-12-15T23:47:01.232Z,95.90
2022-12-15T23:49:29.540Z,95.90
2022-12-15T23:51:58.074Z,95.90
2022-12-15T23:54:27.258Z,95.90
2022-12-15T23:56:55.563Z,96.00
2022-12-15T23:59:23.857Z,96.00
